Palo Alto, Texas
Current Conditions -  °F | °C
As of 2:56 PM on Friday 19 Dec 2014 (Local Time) from KNQI Reporting Station
Overcast Overcast  
Wind Chill: 62°   Ceiling: 1200
Heat Index: 62°   Visibility: 10mi
Dew Point: 58°   Wind: 14mph
Humidity: 86%   Direction: 360°N
Pressure: 30.01"   Gusts: NA
Location:  27.6102°N, 97.7383°W
Report Text: KNQI 192056Z 36012KT 10SM OVC012 17/14 A3001 RMK AO2 SLP160 60001 T01670144 56015
Loading
Personal Weather Stations






























Interactive Weather Map New forecast layout! Learn more

10-Day Weather Forecast

Advertisements
Track Severe Weather on mobile